Terminal Aerodrome Forecast
Issued by NWS Melbourne, FL

Current Version | Previous Version | Text Only | Print | Product List | Glossary On
Versions: 1 2 3 4 5 6 7 8 9 10 11 12 13
058
FTUS42 KMLB 300539
TAFDAB
TAF
KDAB 300539Z 3006/0106 VRB03KT P6SM SCT080 SCT200
     FM301400 13007KT P6SM FEW025 SCT200
     FM301700 11010KT P6SM FEW040 SCT200
     FM010100 12003KT P6SM FEW070 BKN250=

USA.gov is the U.S. government's official web portal to all federal, state and local government web resources and services.